sensor_id;sensor_type;location;lat;lon;timestamp;P1;durP1;ratioP1;P2;durP2;ratioP2
44838;SDS011;30576;42.098;24.876;2023-08-31T00:01:46;1.70;;;0.90;;
44838;SDS011;30576;42.098;24.876;2023-08-31T00:04:13;0.82;;;0.65;;
44838;SDS011;30576;42.098;24.876;2023-08-31T00:06:42;2.10;;;0.85;;
44838;SDS011;30576;42.098;24.876;2023-08-31T00:09:10;0.68;;;0.40;;
44838;SDS011;30576;42.098;24.876;2023-08-31T00:11:36;2.30;;;0.93;;
44838;SDS011;30576;42.098;24.876;2023-08-31T00:14:02;1.75;;;1.25;;
44838;SDS011;30576;42.098;24.876;2023-08-31T00:16:28;1.65;;;0.82;;
44838;SDS011;30576;42.098;24.876;2023-08-31T00:18:55;1.73;;;1.08;;
44838;SDS011;30576;42.098;24.876;2023-08-31T00:21:22;0.70;;;0.50;;
44838;SDS011;30576;42.098;24.876;2023-08-31T00:23:48;2.10;;;0.95;;
44838;SDS011;30576;42.098;24.876;2023-08-31T00:26:14;1.50;;;0.98;;
44838;SDS011;30576;42.098;24.876;2023-08-31T00:28:40;0.52;;;0.52;;
44838;SDS011;30576;42.098;24.876;2023-08-31T00:31:07;1.65;;;1.15;;
44838;SDS011;30576;42.098;24.876;2023-08-31T00:33:33;2.47;;;1.38;;
44838;SDS011;30576;42.098;24.876;2023-08-31T00:36:02;2.95;;;1.02;;
44838;SDS011;30576;42.098;24.876;2023-08-31T00:38:28;0.88;;;0.65;;
44838;SDS011;30576;42.098;24.876;2023-08-31T00:40:55;1.80;;;0.80;;
44838;SDS011;30576;42.098;24.876;2023-08-31T00:43:20;1.77;;;1.17;;
44838;SDS011;30576;42.098;24.876;2023-08-31T00:45:46;1.58;;;0.60;;
44838;SDS011;30576;42.098;24.876;2023-08-31T00:48:14;2.20;;;1.15;;
44838;SDS011;30576;42.098;24.876;2023-08-31T00:50:46;4.38;;;0.85;;
44838;SDS011;30576;42.098;24.876;2023-08-31T00:53:13;1.50;;;0.95;;
44838;SDS011;30576;42.098;24.876;2023-08-31T00:55:40;0.60;;;0.60;;
44838;SDS011;30576;42.098;24.876;2023-08-31T00:58:06;1.92;;;1.25;;
44838;SDS011;30576;42.098;24.876;2023-08-31T01:05:52;0.52;;;0.50;;
44838;SDS011;30576;42.098;24.876;2023-08-31T01:14:10;1.35;;;0.95;;
44838;SDS011;30576;42.098;24.876;2023-08-31T01:16:39;1.15;;;0.82;;
44838;SDS011;30576;42.098;24.876;2023-08-31T01:21:57;3.17;;;1.30;;
44838;SDS011;30576;42.098;24.876;2023-08-31T01:24:28;2.47;;;1.20;;
44838;SDS011;30576;42.098;24.876;2023-08-31T01:26:56;1.35;;;0.80;;
44838;SDS011;30576;42.098;24.876;2023-08-31T01:29:22;0.82;;;0.52;;
44838;SDS011;30576;42.098;24.876;2023-08-31T01:31:48;0.43;;;0.32;;
44838;SDS011;30576;42.098;24.876;2023-08-31T01:37:00;0.95;;;0.55;;
44838;SDS011;30576;42.098;24.876;2023-08-31T01:39:35;1.27;;;0.70;;
44838;SDS011;30576;42.098;24.876;2023-08-31T01:42:06;2.40;;;1.00;;
44838;SDS011;30576;42.098;24.876;2023-08-31T01:44:38;1.08;;;0.65;;
44838;SDS011;30576;42.098;24.876;2023-08-31T01:47:05;0.68;;;0.50;;
44838;SDS011;30576;42.098;24.876;2023-08-31T01:49:37;1.75;;;0.85;;
44838;SDS011;30576;42.098;24.876;2023-08-31T01:52:03;3.08;;;2.08;;
44838;SDS011;30576;42.098;24.876;2023-08-31T01:54:29;0.82;;;0.43;;
44838;SDS011;30576;42.098;24.876;2023-08-31T01:56:55;1.27;;;0.82;;
44838;SDS011;30576;42.098;24.876;2023-08-31T02:02:42;1.10;;;0.90;;
44838;SDS011;30576;42.098;24.876;2023-08-31T02:05:08;2.42;;;0.80;;
44838;SDS011;30576;42.098;24.876;2023-08-31T02:07:34;2.58;;;1.10;;
44838;SDS011;30576;42.098;24.876;2023-08-31T02:09:59;2.58;;;1.33;;
44838;SDS011;30576;42.098;24.876;2023-08-31T02:12:25;0.93;;;0.63;;
44838;SDS011;30576;42.098;24.876;2023-08-31T02:14:50;1.40;;;0.90;;
44838;SDS011;30576;42.098;24.876;2023-08-31T02:17:16;1.75;;;1.08;;
44838;SDS011;30576;42.098;24.876;2023-08-31T02:19:42;1.35;;;0.77;;
44838;SDS011;30576;42.098;24.876;2023-08-31T02:22:07;3.85;;;0.77;;
44838;SDS011;30576;42.098;24.876;2023-08-31T02:24:33;1.23;;;0.80;;
44838;SDS011;30576;42.098;24.876;2023-08-31T02:26:58;1.17;;;0.80;;
44838;SDS011;30576;42.098;24.876;2023-08-31T02:29:24;1.05;;;0.70;;
44838;SDS011;30576;42.098;24.876;2023-08-31T02:31:49;4.32;;;1.20;;
44838;SDS011;30576;42.098;24.876;2023-08-31T02:34:15;0.93;;;0.85;;
44838;SDS011;30576;42.098;24.876;2023-08-31T02:36:40;1.77;;;1.10;;
44838;SDS011;30576;42.098;24.876;2023-08-31T02:39:06;1.17;;;0.70;;
44838;SDS011;30576;42.098;24.876;2023-08-31T02:41:31;1.95;;;1.30;;
44838;SDS011;30576;42.098;24.876;2023-08-31T02:43:57;0.90;;;0.73;;
44838;SDS011;30576;42.098;24.876;2023-08-31T02:46:22;3.15;;;0.75;;
44838;SDS011;30576;42.098;24.876;2023-08-31T02:48:48;1.10;;;0.70;;
44838;SDS011;30576;42.098;24.876;2023-08-31T02:51:13;1.38;;;1.10;;
44838;SDS011;30576;42.098;24.876;2023-08-31T02:53:39;2.72;;;0.98;;
44838;SDS011;30576;42.098;24.876;2023-08-31T02:56:04;1.90;;;1.23;;
44838;SDS011;30576;42.098;24.876;2023-08-31T02:58:30;1.88;;;0.90;;
44838;SDS011;30576;42.098;24.876;2023-08-31T03:01:05;3.30;;;1.20;;
44838;SDS011;30576;42.098;24.876;2023-08-31T03:03:36;7.85;;;1.98;;
44838;SDS011;30576;42.098;24.876;2023-08-31T03:06:08;2.45;;;1.55;;
44838;SDS011;30576;42.098;24.876;2023-08-31T03:08:35;2.10;;;0.98;;
44838;SDS011;30576;42.098;24.876;2023-08-31T03:11:01;1.42;;;0.80;;
44838;SDS011;30576;42.098;24.876;2023-08-31T03:13:33;1.55;;;0.60;;
44838;SDS011;30576;42.098;24.876;2023-08-31T03:15:59;1.63;;;0.80;;
44838;SDS011;30576;42.098;24.876;2023-08-31T03:18:25;1.42;;;0.90;;
44838;SDS011;30576;42.098;24.876;2023-08-31T03:20:51;0.55;;;0.38;;
44838;SDS011;30576;42.098;24.876;2023-08-31T03:23:16;1.95;;;1.30;;
44838;SDS011;30576;42.098;24.876;2023-08-31T03:25:42;1.60;;;0.90;;
44838;SDS011;30576;42.098;24.876;2023-08-31T03:28:14;1.65;;;1.00;;
44838;SDS011;30576;42.098;24.876;2023-08-31T03:30:42;2.45;;;1.00;;
44838;SDS011;30576;42.098;24.876;2023-08-31T03:33:10;2.17;;;1.42;;
44838;SDS011;30576;42.098;24.876;2023-08-31T03:35:36;3.25;;;0.60;;
44838;SDS011;30576;42.098;24.876;2023-08-31T03:38:02;0.57;;;0.47;;
44838;SDS011;30576;42.098;24.876;2023-08-31T03:40:35;0.65;;;0.60;;
44838;SDS011;30576;42.098;24.876;2023-08-31T03:43:00;0.68;;;0.57;;
44838;SDS011;30576;42.098;24.876;2023-08-31T03:51:55;1.40;;;0.77;;
44838;SDS011;30576;42.098;24.876;2023-08-31T03:54:21;5.15;;;1.17;;
44838;SDS011;30576;42.098;24.876;2023-08-31T03:56:46;2.17;;;0.93;;
44838;SDS011;30576;42.098;24.876;2023-08-31T03:59:12;2.92;;;1.08;;
44838;SDS011;30576;42.098;24.876;2023-08-31T04:01:37;1.88;;;1.15;;
44838;SDS011;30576;42.098;24.876;2023-08-31T04:04:03;1.75;;;1.05;;
44838;SDS011;30576;42.098;24.876;2023-08-31T04:06:29;2.80;;;1.67;;
44838;SDS011;30576;42.098;24.876;2023-08-31T04:08:54;2.58;;;1.50;;
44838;SDS011;30576;42.098;24.876;2023-08-31T04:11:20;2.97;;;2.03;;
44838;SDS011;30576;42.098;24.876;2023-08-31T04:13:45;4.45;;;2.97;;
44838;SDS011;30576;42.098;24.876;2023-08-31T04:16:11;4.93;;;3.60;;
44838;SDS011;30576;42.098;24.876;2023-08-31T04:18:36;3.75;;;2.72;;
44838;SDS011;30576;42.098;24.876;2023-08-31T04:21:02;4.43;;;3.17;;
44838;SDS011;30576;42.098;24.876;2023-08-31T04:23:28;7.80;;;1.73;;
44838;SDS011;30576;42.098;24.876;2023-08-31T04:25:54;3.42;;;2.67;;
44838;SDS011;30576;42.098;24.876;2023-08-31T04:28:21;4.03;;;3.47;;
44838;SDS011;30576;42.098;24.876;2023-08-31T04:30:46;4.20;;;2.42;;
44838;SDS011;30576;42.098;24.876;2023-08-31T04:52:27;7.72;;;2.47;;
44838;SDS011;30576;42.098;24.876;2023-08-31T04:54:55;8.95;;;4.20;;
44838;SDS011;30576;42.098;24.876;2023-08-31T04:57:28;7.15;;;3.63;;
44838;SDS011;30576;42.098;24.876;2023-08-31T04:59:54;6.53;;;3.47;;
44838;SDS011;30576;42.098;24.876;2023-08-31T05:02:20;3.60;;;2.53;;
44838;SDS011;30576;42.098;24.876;2023-08-31T05:04:47;4.70;;;3.10;;
44838;SDS011;30576;42.098;24.876;2023-08-31T05:07:13;6.65;;;3.53;;
44838;SDS011;30576;42.098;24.876;2023-08-31T05:09:38;6.13;;;2.85;;
44838;SDS011;30576;42.098;24.876;2023-08-31T05:12:04;5.65;;;2.75;;
44838;SDS011;30576;42.098;24.876;2023-08-31T05:14:30;2.88;;;2.25;;
44838;SDS011;30576;42.098;24.876;2023-08-31T05:16:55;3.58;;;1.52;;
44838;SDS011;30576;42.098;24.876;2023-08-31T05:19:21;1.13;;;1.02;;
44838;SDS011;30576;42.098;24.876;2023-08-31T05:21:47;7.22;;;1.48;;
44838;SDS011;30576;42.098;24.876;2023-08-31T05:24:12;4.25;;;1.65;;
44838;SDS011;30576;42.098;24.876;2023-08-31T05:26:38;2.88;;;1.25;;
44838;SDS011;30576;42.098;24.876;2023-08-31T05:29:04;4.72;;;2.17;;
44838;SDS011;30576;42.098;24.876;2023-08-31T05:31:30;3.17;;;2.28;;
44838;SDS011;30576;42.098;24.876;2023-08-31T05:33:59;3.85;;;1.90;;
44838;SDS011;30576;42.098;24.876;2023-08-31T05:36:27;6.57;;;2.75;;
44838;SDS011;30576;42.098;24.876;2023-08-31T05:38:52;3.53;;;1.55;;
44838;SDS011;30576;42.098;24.876;2023-08-31T05:41:18;1.13;;;0.52;;
44838;SDS011;30576;42.098;24.876;2023-08-31T05:43:43;2.63;;;0.80;;
44838;SDS011;30576;42.098;24.876;2023-08-31T05:46:10;1.33;;;0.95;;
44838;SDS011;30576;42.098;24.876;2023-08-31T05:48:36;0.65;;;0.43;;
44838;SDS011;30576;42.098;24.876;2023-08-31T05:51:01;0.50;;;0.50;;
44838;SDS011;30576;42.098;24.876;2023-08-31T05:53:29;4.70;;;1.55;;
44838;SDS011;30576;42.098;24.876;2023-08-31T05:55:55;2.75;;;1.10;;
44838;SDS011;30576;42.098;24.876;2023-08-31T05:58:28;1.80;;;0.90;;
44838;SDS011;30576;42.098;24.876;2023-08-31T06:00:57;4.63;;;0.82;;
44838;SDS011;30576;42.098;24.876;2023-08-31T06:03:23;2.35;;;0.95;;
44838;SDS011;30576;42.098;24.876;2023-08-31T06:05:49;0.68;;;0.45;;
44838;SDS011;30576;42.098;24.876;2023-08-31T06:08:15;1.73;;;1.08;;
44838;SDS011;30576;42.098;24.876;2023-08-31T06:10:43;2.38;;;1.40;;
44838;SDS011;30576;42.098;24.876;2023-08-31T06:13:10;0.75;;;0.73;;
44838;SDS011;30576;42.098;24.876;2023-08-31T06:15:38;1.30;;;0.95;;
44838;SDS011;30576;42.098;24.876;2023-08-31T06:18:05;1.13;;;0.95;;
44838;SDS011;30576;42.098;24.876;2023-08-31T06:25:35;1.63;;;0.75;;
44838;SDS011;30576;42.098;24.876;2023-08-31T06:28:01;1.17;;;0.55;;
44838;SDS011;30576;42.098;24.876;2023-08-31T06:30:30;1.15;;;0.75;;
44838;SDS011;30576;42.098;24.876;2023-08-31T06:32:56;0.93;;;0.50;;
44838;SDS011;30576;42.098;24.876;2023-08-31T06:35:22;1.15;;;0.50;;
44838;SDS011;30576;42.098;24.876;2023-08-31T06:37:48;1.02;;;0.77;;
44838;SDS011;30576;42.098;24.876;2023-08-31T06:40:15;1.85;;;0.80;;
44838;SDS011;30576;42.098;24.876;2023-08-31T06:42:44;2.08;;;0.75;;
44838;SDS011;30576;42.098;24.876;2023-08-31T06:45:09;1.80;;;0.95;;
44838;SDS011;30576;42.098;24.876;2023-08-31T06:47:35;0.90;;;0.60;;
44838;SDS011;30576;42.098;24.876;2023-08-31T06:50:03;2.17;;;1.60;;
44838;SDS011;30576;42.098;24.876;2023-08-31T06:52:29;2.75;;;1.17;;
44838;SDS011;30576;42.098;24.876;2023-08-31T06:54:55;1.38;;;0.70;;
44838;SDS011;30576;42.098;24.876;2023-08-31T06:57:24;2.03;;;0.52;;
44838;SDS011;30576;42.098;24.876;2023-08-31T06:59:50;0.95;;;0.55;;
44838;SDS011;30576;42.098;24.876;2023-08-31T07:02:16;2.53;;;0.88;;
44838;SDS011;30576;42.098;24.876;2023-08-31T07:04:41;0.50;;;0.43;;
44838;SDS011;30576;42.098;24.876;2023-08-31T07:09:36;1.80;;;0.68;;
44838;SDS011;30576;42.098;24.876;2023-08-31T07:12:01;4.07;;;1.42;;
44838;SDS011;30576;42.098;24.876;2023-08-31T07:14:27;1.25;;;0.77;;
44838;SDS011;30576;42.098;24.876;2023-08-31T07:16:52;4.15;;;1.17;;
44838;SDS011;30576;42.098;24.876;2023-08-31T07:19:18;0.85;;;0.80;;
44838;SDS011;30576;42.098;24.876;2023-08-31T07:21:43;1.90;;;0.93;;
44838;SDS011;30576;42.098;24.876;2023-08-31T07:24:09;0.30;;;0.30;;
44838;SDS011;30576;42.098;24.876;2023-08-31T07:26:35;1.23;;;0.80;;
44838;SDS011;30576;42.098;24.876;2023-08-31T07:29:01;1.50;;;0.63;;
44838;SDS011;30576;42.098;24.876;2023-08-31T07:31:29;0.52;;;0.30;;
44838;SDS011;30576;42.098;24.876;2023-08-31T07:33:56;0.88;;;0.70;;
44838;SDS011;30576;42.098;24.876;2023-08-31T07:36:21;1.17;;;0.65;;
44838;SDS011;30576;42.098;24.876;2023-08-31T07:38:47;1.08;;;0.70;;
44838;SDS011;30576;42.098;24.876;2023-08-31T07:41:12;0.98;;;0.73;;
44838;SDS011;30576;42.098;24.876;2023-08-31T07:43:38;1.35;;;0.80;;
44838;SDS011;30576;42.098;24.876;2023-08-31T07:46:03;1.65;;;0.93;;
44838;SDS011;30576;42.098;24.876;2023-08-31T07:48:29;6.65;;;3.33;;
44838;SDS011;30576;42.098;24.876;2023-08-31T07:50:54;5.88;;;3.00;;
44838;SDS011;30576;42.098;24.876;2023-08-31T07:53:20;8.43;;;3.47;;
44838;SDS011;30576;42.098;24.876;2023-08-31T07:55:52;1.30;;;0.77;;
44838;SDS011;30576;42.098;24.876;2023-08-31T07:58:24;3.65;;;1.40;;
44838;SDS011;30576;42.098;24.876;2023-08-31T08:00:54;3.10;;;1.73;;
44838;SDS011;30576;42.098;24.876;2023-08-31T08:03:21;2.05;;;1.02;;
44838;SDS011;30576;42.098;24.876;2023-08-31T08:05:47;2.38;;;0.90;;
44838;SDS011;30576;42.098;24.876;2023-08-31T08:08:12;1.67;;;0.98;;
44838;SDS011;30576;42.098;24.876;2023-08-31T08:10:38;1.27;;;0.60;;
44838;SDS011;30576;42.098;24.876;2023-08-31T08:13:03;4.63;;;1.83;;
44838;SDS011;30576;42.098;24.876;2023-08-31T08:15:29;3.17;;;1.33;;
44838;SDS011;30576;42.098;24.876;2023-08-31T08:17:55;4.28;;;2.30;;
44838;SDS011;30576;42.098;24.876;2023-08-31T08:20:22;2.00;;;1.13;;
44838;SDS011;30576;42.098;24.876;2023-08-31T08:22:48;2.42;;;0.70;;
44838;SDS011;30576;42.098;24.876;2023-08-31T08:25:17;1.95;;;1.13;;
44838;SDS011;30576;42.098;24.876;2023-08-31T08:27:46;0.60;;;0.60;;
44838;SDS011;30576;42.098;24.876;2023-08-31T08:30:12;1.20;;;0.75;;
44838;SDS011;30576;42.098;24.876;2023-08-31T08:32:37;2.00;;;0.70;;
44838;SDS011;30576;42.098;24.876;2023-08-31T08:35:03;0.88;;;0.70;;
44838;SDS011;30576;42.098;24.876;2023-08-31T08:37:29;1.00;;;0.80;;
44838;SDS011;30576;42.098;24.876;2023-08-31T08:39:57;1.85;;;0.35;;
44838;SDS011;30576;42.098;24.876;2023-08-31T08:42:23;2.30;;;1.73;;
44838;SDS011;30576;42.098;24.876;2023-08-31T08:44:50;1.83;;;1.17;;
44838;SDS011;30576;42.098;24.876;2023-08-31T08:47:17;0.73;;;0.50;;
44838;SDS011;30576;42.098;24.876;2023-08-31T08:49:43;1.15;;;0.50;;
44838;SDS011;30576;42.098;24.876;2023-08-31T08:52:11;2.20;;;0.90;;
44838;SDS011;30576;42.098;24.876;2023-08-31T08:54:41;1.13;;;0.60;;
44838;SDS011;30576;42.098;24.876;2023-08-31T08:57:06;2.88;;;1.77;;
44838;SDS011;30576;42.098;24.876;2023-08-31T08:59:32;0.80;;;0.55;;
44838;SDS011;30576;42.098;24.876;2023-08-31T09:01:58;1.60;;;0.50;;
44838;SDS011;30576;42.098;24.876;2023-08-31T09:04:24;1.58;;;0.57;;
44838;SDS011;30576;42.098;24.876;2023-08-31T09:06:50;1.48;;;0.85;;
44838;SDS011;30576;42.098;24.876;2023-08-31T09:09:18;3.60;;;0.85;;
44838;SDS011;30576;42.098;24.876;2023-08-31T09:11:46;0.77;;;0.45;;
44838;SDS011;30576;42.098;24.876;2023-08-31T09:14:15;1.60;;;0.70;;
44838;SDS011;30576;42.098;24.876;2023-08-31T09:16:45;0.73;;;0.47;;
44838;SDS011;30576;42.098;24.876;2023-08-31T09:19:22;1.17;;;0.90;;
44838;SDS011;30576;42.098;24.876;2023-08-31T09:21:50;0.43;;;0.20;;
44838;SDS011;30576;42.098;24.876;2023-08-31T09:24:16;1.92;;;1.15;;
44838;SDS011;30576;42.098;24.876;2023-08-31T09:26:43;0.73;;;0.40;;
44838;SDS011;30576;42.098;24.876;2023-08-31T09:29:09;1.83;;;0.85;;
44838;SDS011;30576;42.098;24.876;2023-08-31T09:34:32;0.73;;;0.68;;
44838;SDS011;30576;42.098;24.876;2023-08-31T09:37:03;1.33;;;0.90;;
44838;SDS011;30576;42.098;24.876;2023-08-31T09:39:38;1.67;;;0.50;;
44838;SDS011;30576;42.098;24.876;2023-08-31T09:42:04;0.77;;;0.63;;
44838;SDS011;30576;42.098;24.876;2023-08-31T09:44:30;0.95;;;0.68;;
44838;SDS011;30576;42.098;24.876;2023-08-31T09:46:56;0.65;;;0.57;;
44838;SDS011;30576;42.098;24.876;2023-08-31T09:49:21;0.90;;;0.68;;
44838;SDS011;30576;42.098;24.876;2023-08-31T09:51:49;1.95;;;1.02;;
44838;SDS011;30576;42.098;24.876;2023-08-31T09:54:16;1.23;;;0.80;;
44838;SDS011;30576;42.098;24.876;2023-08-31T09:56:43;0.55;;;0.47;;
44838;SDS011;30576;42.098;24.876;2023-08-31T09:59:09;0.20;;;0.20;;
44838;SDS011;30576;42.098;24.876;2023-08-31T10:01:35;0.77;;;0.55;;
44838;SDS011;30576;42.098;24.876;2023-08-31T10:04:02;0.47;;;0.47;;
44838;SDS011;30576;42.098;24.876;2023-08-31T10:06:27;3.08;;;1.50;;
44838;SDS011;30576;42.098;24.876;2023-08-31T10:08:55;1.48;;;0.52;;
44838;SDS011;30576;42.098;24.876;2023-08-31T10:11:31;0.25;;;0.25;;
44838;SDS011;30576;42.098;24.876;2023-08-31T10:14:03;2.08;;;0.90;;
44838;SDS011;30576;42.098;24.876;2023-08-31T10:16:29;0.40;;;0.30;;
44838;SDS011;30576;42.098;24.876;2023-08-31T10:18:55;2.47;;;0.75;;
44838;SDS011;30576;42.098;24.876;2023-08-31T10:21:22;1.02;;;0.47;;
44838;SDS011;30576;42.098;24.876;2023-08-31T10:23:50;2.53;;;0.77;;
44838;SDS011;30576;42.098;24.876;2023-08-31T10:26:30;1.48;;;0.70;;
44838;SDS011;30576;42.098;24.876;2023-08-31T10:28:57;1.30;;;0.73;;
44838;SDS011;30576;42.098;24.876;2023-08-31T10:31:24;0.52;;;0.32;;
44838;SDS011;30576;42.098;24.876;2023-08-31T10:34:03;2.60;;;0.52;;
44838;SDS011;30576;42.098;24.876;2023-08-31T10:36:37;2.17;;;0.98;;
44838;SDS011;30576;42.098;24.876;2023-08-31T10:39:05;1.70;;;0.70;;
44838;SDS011;30576;42.098;24.876;2023-08-31T10:41:38;1.77;;;0.50;;
44838;SDS011;30576;42.098;24.876;2023-08-31T10:44:38;1.35;;;0.63;;
44838;SDS011;30576;42.098;24.876;2023-08-31T10:47:03;1.52;;;0.95;;
44838;SDS011;30576;42.098;24.876;2023-08-31T10:49:30;3.35;;;1.75;;
44838;SDS011;30576;42.098;24.876;2023-08-31T10:52:14;0.60;;;0.57;;
44838;SDS011;30576;42.098;24.876;2023-08-31T10:54:45;1.15;;;0.38;;
44838;SDS011;30576;42.098;24.876;2023-08-31T10:57:12;5.18;;;1.05;;
44838;SDS011;30576;42.098;24.876;2023-08-31T10:59:49;0.77;;;0.52;;
44838;SDS011;30576;42.098;24.876;2023-08-31T11:07:33;0.32;;;0.30;;
44838;SDS011;30576;42.098;24.876;2023-08-31T11:10:08;2.92;;;0.73;;
44838;SDS011;30576;42.098;24.876;2023-08-31T11:12:40;1.70;;;1.05;;
44838;SDS011;30576;42.098;24.876;2023-08-31T11:15:07;5.18;;;0.40;;
44838;SDS011;30576;42.098;24.876;2023-08-31T11:17:33;1.50;;;0.70;;
44838;SDS011;30576;42.098;24.876;2023-08-31T11:19:59;0.90;;;0.73;;
44838;SDS011;30576;42.098;24.876;2023-08-31T11:22:26;0.93;;;0.68;;
44838;SDS011;30576;42.098;24.876;2023-08-31T11:24:52;2.05;;;1.20;;
44838;SDS011;30576;42.098;24.876;2023-08-31T11:27:21;6.47;;;1.38;;
44838;SDS011;30576;42.098;24.876;2023-08-31T11:29:47;1.35;;;0.85;;
44838;SDS011;30576;42.098;24.876;2023-08-31T11:32:13;1.83;;;0.70;;
44838;SDS011;30576;42.098;24.876;2023-08-31T11:34:45;9.75;;;1.95;;
44838;SDS011;30576;42.098;24.876;2023-08-31T11:37:12;2.45;;;0.65;;
44838;SDS011;30576;42.098;24.876;2023-08-31T11:39:47;1.30;;;0.82;;
44838;SDS011;30576;42.098;24.876;2023-08-31T11:42:18;0.43;;;0.43;;
44838;SDS011;30576;42.098;24.876;2023-08-31T11:44:48;0.40;;;0.40;;
44838;SDS011;30576;42.098;24.876;2023-08-31T11:47:15;1.10;;;0.50;;
44838;SDS011;30576;42.098;24.876;2023-08-31T11:49:42;1.42;;;0.65;;
44838;SDS011;30576;42.098;24.876;2023-08-31T11:52:09;2.63;;;1.50;;
44838;SDS011;30576;42.098;24.876;2023-08-31T11:54:37;2.50;;;0.75;;
44838;SDS011;30576;42.098;24.876;2023-08-31T11:57:06;1.88;;;0.82;;
44838;SDS011;30576;42.098;24.876;2023-08-31T11:59:34;2.58;;;1.13;;
44838;SDS011;30576;42.098;24.876;2023-08-31T12:02:00;1.05;;;0.68;;
44838;SDS011;30576;42.098;24.876;2023-08-31T12:04:26;1.95;;;1.08;;
44838;SDS011;30576;42.098;24.876;2023-08-31T12:06:52;1.95;;;1.30;;
44838;SDS011;30576;42.098;24.876;2023-08-31T12:09:21;1.25;;;0.77;;
44838;SDS011;30576;42.098;24.876;2023-08-31T12:11:50;1.90;;;1.40;;
44838;SDS011;30576;42.098;24.876;2023-08-31T12:14:22;0.40;;;0.32;;
44838;SDS011;30576;42.098;24.876;2023-08-31T12:16:49;1.30;;;0.90;;
44838;SDS011;30576;42.098;24.876;2023-08-31T12:19:16;2.63;;;1.23;;
44838;SDS011;30576;42.098;24.876;2023-08-31T12:21:43;3.00;;;1.08;;
44838;SDS011;30576;42.098;24.876;2023-08-31T12:24:09;2.90;;;1.40;;
44838;SDS011;30576;42.098;24.876;2023-08-31T12:26:35;2.13;;;0.77;;
44838;SDS011;30576;42.098;24.876;2023-08-31T12:29:02;2.03;;;1.15;;
44838;SDS011;30576;42.098;24.876;2023-08-31T12:31:30;2.78;;;0.98;;
44838;SDS011;30576;42.098;24.876;2023-08-31T12:33:56;1.83;;;0.82;;
44838;SDS011;30576;42.098;24.876;2023-08-31T12:36:21;1.38;;;0.40;;
44838;SDS011;30576;42.098;24.876;2023-08-31T12:38:47;1.92;;;1.02;;
44838;SDS011;30576;42.098;24.876;2023-08-31T12:41:12;1.50;;;1.25;;
44838;SDS011;30576;42.098;24.876;2023-08-31T12:43:38;1.02;;;0.57;;
44838;SDS011;30576;42.098;24.876;2023-08-31T12:46:04;1.42;;;0.70;;
44838;SDS011;30576;42.098;24.876;2023-08-31T12:48:34;0.90;;;0.73;;
44838;SDS011;30576;42.098;24.876;2023-08-31T12:51:00;1.40;;;0.80;;
44838;SDS011;30576;42.098;24.876;2023-08-31T12:53:29;1.85;;;0.85;;
44838;SDS011;30576;42.098;24.876;2023-08-31T12:55:54;1.75;;;0.93;;
44838;SDS011;30576;42.098;24.876;2023-08-31T12:58:20;1.33;;;0.70;;
44838;SDS011;30576;42.098;24.876;2023-08-31T13:00:47;1.63;;;1.15;;
44838;SDS011;30576;42.098;24.876;2023-08-31T13:03:15;1.05;;;0.57;;
44838;SDS011;30576;42.098;24.876;2023-08-31T13:05:41;1.02;;;0.82;;
44838;SDS011;30576;42.098;24.876;2023-08-31T13:08:07;0.82;;;0.82;;
44838;SDS011;30576;42.098;24.876;2023-08-31T13:10:34;2.25;;;0.75;;
44838;SDS011;30576;42.098;24.876;2023-08-31T13:12:59;3.13;;;0.90;;
44838;SDS011;30576;42.098;24.876;2023-08-31T13:15:25;3.30;;;1.40;;
44838;SDS011;30576;42.098;24.876;2023-08-31T13:17:51;1.05;;;0.70;;
44838;SDS011;30576;42.098;24.876;2023-08-31T13:20:16;1.05;;;0.93;;
44838;SDS011;30576;42.098;24.876;2023-08-31T13:22:42;3.58;;;1.58;;
44838;SDS011;30576;42.098;24.876;2023-08-31T13:25:07;1.60;;;0.65;;
44838;SDS011;30576;42.098;24.876;2023-08-31T13:27:33;0.98;;;0.65;;
44838;SDS011;30576;42.098;24.876;2023-08-31T13:29:59;0.80;;;0.65;;
44838;SDS011;30576;42.098;24.876;2023-08-31T13:32:24;8.13;;;1.75;;
44838;SDS011;30576;42.098;24.876;2023-08-31T13:34:51;2.40;;;1.30;;
44838;SDS011;30576;42.098;24.876;2023-08-31T13:37:18;1.23;;;0.82;;
44838;SDS011;30576;42.098;24.876;2023-08-31T13:39:44;6.38;;;0.73;;
44838;SDS011;30576;42.098;24.876;2023-08-31T13:42:09;2.63;;;1.35;;
44838;SDS011;30576;42.098;24.876;2023-08-31T13:44:35;1.13;;;0.88;;
44838;SDS011;30576;42.098;24.876;2023-08-31T13:47:01;1.38;;;0.88;;
44838;SDS011;30576;42.098;24.876;2023-08-31T13:49:28;3.65;;;1.05;;
44838;SDS011;30576;42.098;24.876;2023-08-31T13:51:54;2.38;;;1.05;;
44838;SDS011;30576;42.098;24.876;2023-08-31T13:54:19;1.52;;;0.90;;
44838;SDS011;30576;42.098;24.876;2023-08-31T13:56:45;3.83;;;1.05;;
44838;SDS011;30576;42.098;24.876;2023-08-31T13:59:10;2.13;;;1.13;;
44838;SDS011;30576;42.098;24.876;2023-08-31T14:01:36;6.05;;;0.95;;
44838;SDS011;30576;42.098;24.876;2023-08-31T14:04:03;1.52;;;0.68;;
44838;SDS011;30576;42.098;24.876;2023-08-31T14:06:29;1.75;;;0.82;;
44838;SDS011;30576;42.098;24.876;2023-08-31T14:08:55;1.10;;;0.80;;
44838;SDS011;30576;42.098;24.876;2023-08-31T14:11:21;4.38;;;1.00;;
44838;SDS011;30576;42.098;24.876;2023-08-31T14:13:47;0.63;;;0.50;;
44838;SDS011;30576;42.098;24.876;2023-08-31T14:16:12;2.92;;;1.15;;
44838;SDS011;30576;42.098;24.876;2023-08-31T14:18:40;11.95;;;1.55;;
44838;SDS011;30576;42.098;24.876;2023-08-31T14:21:06;2.10;;;1.20;;
44838;SDS011;30576;42.098;24.876;2023-08-31T14:23:31;1.85;;;1.13;;
44838;SDS011;30576;42.098;24.876;2023-08-31T14:26:00;1.85;;;1.10;;
44838;SDS011;30576;42.098;24.876;2023-08-31T14:28:29;1.02;;;0.65;;
44838;SDS011;30576;42.098;24.876;2023-08-31T14:30:54;0.77;;;0.70;;
44838;SDS011;30576;42.098;24.876;2023-08-31T14:33:20;1.13;;;0.73;;
44838;SDS011;30576;42.098;24.876;2023-08-31T14:35:45;1.63;;;1.00;;
44838;SDS011;30576;42.098;24.876;2023-08-31T14:38:11;1.92;;;0.73;;
44838;SDS011;30576;42.098;24.876;2023-08-31T14:40:40;2.97;;;0.93;;
44838;SDS011;30576;42.098;24.876;2023-08-31T14:43:06;1.90;;;1.00;;
44838;SDS011;30576;42.098;24.876;2023-08-31T14:45:32;1.95;;;0.98;;
44838;SDS011;30576;42.098;24.876;2023-08-31T14:47:57;3.88;;;0.73;;
44838;SDS011;30576;42.098;24.876;2023-08-31T14:50:23;4.53;;;1.00;;
44838;SDS011;30576;42.098;24.876;2023-08-31T14:52:49;3.17;;;1.05;;
44838;SDS011;30576;42.098;24.876;2023-08-31T14:55:22;0.85;;;0.63;;
44838;SDS011;30576;42.098;24.876;2023-08-31T14:57:48;6.53;;;1.55;;
44838;SDS011;30576;42.098;24.876;2023-08-31T15:00:16;1.90;;;0.90;;
44838;SDS011;30576;42.098;24.876;2023-08-31T15:02:46;1.30;;;0.88;;
44838;SDS011;30576;42.098;24.876;2023-08-31T15:05:12;2.35;;;0.75;;
44838;SDS011;30576;42.098;24.876;2023-08-31T15:07:38;1.58;;;0.82;;
44838;SDS011;30576;42.098;24.876;2023-08-31T15:10:04;7.07;;;1.55;;
44838;SDS011;30576;42.098;24.876;2023-08-31T15:12:32;3.42;;;0.93;;
44838;SDS011;30576;42.098;24.876;2023-08-31T15:14:58;5.07;;;0.85;;
44838;SDS011;30576;42.098;24.876;2023-08-31T15:17:24;2.65;;;2.00;;
44838;SDS011;30576;42.098;24.876;2023-08-31T15:19:52;2.35;;;1.45;;
44838;SDS011;30576;42.098;24.876;2023-08-31T15:22:18;1.10;;;0.63;;
44838;SDS011;30576;42.098;24.876;2023-08-31T15:24:44;3.17;;;1.10;;
44838;SDS011;30576;42.098;24.876;2023-08-31T15:27:11;0.65;;;0.63;;
44838;SDS011;30576;42.098;24.876;2023-08-31T15:29:36;2.38;;;1.33;;
44838;SDS011;30576;42.098;24.876;2023-08-31T15:32:02;0.50;;;0.50;;
44838;SDS011;30576;42.098;24.876;2023-08-31T15:34:27;2.30;;;0.75;;